Snohomish, Washington
Current Conditions -  °F | °C
As of 4:53 AM on Friday 31 Oct 2014 (Local Time) from KPAE Reporting Station
Light Rain Light Rain  
Wind Chill: 50°   Ceiling: 5000
Heat Index: 50°   Visibility: 10mi
Dew Point: 48°   Wind: 3mph
Humidity: 93%   Direction: 240°WSW
Pressure: 29.71"   Gusts: NA
Location:  47.91°N, 122.09°W
Report Text: KPAE 311153Z AUTO 24003KT 10SM -RA OVC050 10/09 A2971 RMK AO2 SLP062 P0003 60026 70078 T01000089 10128 20100 58018
Loading
Personal Weather Stations






























Interactive Weather Map
Tropical Storm Tracking
New forecast layout! Learn more

10-Day Weather Forecast

Advertisements
Track Severe Weather on mobile